createdAt,value
2023-11-07T00:01:32.761Z,87.77
2023-11-07T00:04:09.350Z,91.50
2023-11-07T00:06:37.071Z,88.22
2023-11-07T00:09:04.835Z,88.35
2023-11-07T00:11:32.201Z,85.07
2023-11-07T00:13:59.797Z,85.68
2023-11-07T00:16:28.948Z,84.59
2023-11-07T00:18:57.483Z,83.65
2023-11-07T00:21:25.411Z,82.54
2023-11-07T00:23:53.106Z,83.71
2023-11-07T00:26:21.689Z,83.87
2023-11-07T00:28:53.209Z,82.63
2023-11-07T00:31:20.504Z,82.42
2023-11-07T00:33:48.201Z,85.57
2023-11-07T00:36:17.516Z,82.39
2023-11-07T00:38:45.613Z,82.81
2023-11-07T00:41:14.650Z,84.36
2023-11-07T00:43:45.663Z,82.67
2023-11-07T00:46:13.023Z,81.77
2023-11-07T00:48:40.767Z,83.00
2023-11-07T00:51:08.959Z,81.71
2023-11-07T00:53:40.156Z,81.75
2023-11-07T00:56:10.965Z,81.56
2023-11-07T00:58:38.711Z,81.56
2023-11-07T01:01:06.387Z,81.63
2023-11-07T01:03:35.224Z,82.55
2023-11-07T01:06:06.092Z,82.52
2023-11-07T01:08:35.356Z,82.27
2023-11-07T01:11:02.814Z,82.61
2023-11-07T01:13:31.339Z,81.92
2023-11-07T01:16:03.393Z,81.41
2023-11-07T01:18:31.505Z,81.24
2023-11-07T01:20:59.646Z,82.03
2023-11-07T01:23:27.519Z,81.15
2023-11-07T01:25:55.241Z,80.29
2023-11-07T01:28:24.116Z,80.40
2023-11-07T01:30:52.686Z,77.89
2023-11-07T01:33:20.473Z,76.23
2023-11-07T01:35:48.072Z,76.23
2023-11-07T01:38:15.826Z,75.25
2023-11-07T01:40:42.986Z,74.12
2023-11-07T01:43:15.040Z,73.77
2023-11-07T01:45:43.375Z,74.22
2023-11-07T01:48:19.465Z,74.65
2023-11-07T01:50:46.760Z,74.74
2023-11-07T01:53:14.968Z,74.34
2023-11-07T01:55:43.828Z,74.22
2023-11-07T01:58:11.877Z,75.36
2023-11-07T02:00:41.426Z,75.06
2023-11-07T02:03:09.662Z,74.38
2023-11-07T02:05:37.147Z,74.00
2023-11-07T02:08:06.810Z,73.90
2023-11-07T02:10:34.191Z,74.83
2023-11-07T02:13:01.850Z,75.09
2023-11-07T02:15:29.188Z,75.95
2023-11-07T02:17:57.212Z,76.01
2023-11-07T02:20:25.518Z,77.09
2023-11-07T02:23:10.695Z,75.89
2023-11-07T02:25:40.182Z,77.47
2023-11-07T02:28:08.577Z,77.78
2023-11-07T02:30:35.885Z,78.85
2023-11-07T02:33:06.008Z,80.39
2023-11-07T02:35:33.902Z,79.16
2023-11-07T02:38:02.069Z,77.29
2023-11-07T02:40:30.442Z,77.39
2023-11-07T02:43:01.057Z,76.79
2023-11-07T02:45:29.775Z,77.69
2023-11-07T02:47:57.642Z,76.00
2023-11-07T02:50:25.107Z,76.45
2023-11-07T02:52:52.784Z,76.49
2023-11-07T02:55:20.127Z,77.12
2023-11-07T02:57:48.758Z,77.79
2023-11-07T03:00:16.924Z,77.88
2023-11-07T03:02:44.904Z,78.50
2023-11-07T03:05:13.882Z,79.77
2023-11-07T03:07:41.544Z,80.45
2023-11-07T03:10:10.446Z,81.54
2023-11-07T03:12:38.057Z,81.56
2023-11-07T03:15:06.250Z,81.86
2023-11-07T03:17:35.571Z,80.21
2023-11-07T03:20:10.167Z,81.12
2023-11-07T03:22:38.037Z,81.14
2023-11-07T03:25:05.963Z,81.10
2023-11-07T03:27:34.568Z,82.03
2023-11-07T03:30:07.727Z,82.82
2023-11-07T03:32:36.146Z,83.85
2023-11-07T03:35:06.165Z,85.26
2023-11-07T03:37:34.400Z,86.26
2023-11-07T03:40:05.350Z,87.75
2023-11-07T03:42:36.543Z,89.09
2023-11-07T03:45:04.993Z,89.93
2023-11-07T03:47:34.752Z,90.75
2023-11-07T03:50:04.242Z,90.88
2023-11-07T03:52:32.235Z,92.62
2023-11-07T03:54:59.529Z,100.00
2023-11-07T03:57:27.354Z,100.00
2023-11-07T03:59:55.752Z,100.00
2023-11-07T04:02:23.745Z,100.00
2023-11-07T04:04:51.271Z,100.00
2023-11-07T04:07:18.938Z,91.28
2023-11-07T04:09:46.506Z,86.96
2023-11-07T04:12:15.216Z,85.41
2023-11-07T04:14:45.080Z,84.62
2023-11-07T04:17:13.464Z,82.24
2023-11-07T04:19:40.846Z,84.70
2023-11-07T04:22:09.057Z,84.83
2023-11-07T04:24:38.738Z,85.73
2023-11-07T04:27:08.704Z,85.57
2023-11-07T04:29:36.199Z,89.39
2023-11-07T04:32:04.246Z,91.42
2023-11-07T04:34:31.556Z,92.19
2023-11-07T04:37:00.141Z,93.33
2023-11-07T04:39:28.353Z,94.11
2023-11-07T04:41:56.234Z,95.33
2023-11-07T04:44:25.921Z,97.11
2023-11-07T04:46:54.068Z,95.80
2023-11-07T04:49:21.685Z,96.15
2023-11-07T04:51:49.557Z,98.29
2023-11-07T04:54:16.996Z,97.80
2023-11-07T04:56:45.598Z,97.09
2023-11-07T04:59:14.606Z,95.18
2023-11-07T05:01:42.351Z,95.14
2023-11-07T05:04:13.952Z,93.94
2023-11-07T05:06:43.016Z,93.74
2023-11-07T05:09:13.984Z,94.85
2023-11-07T05:11:42.573Z,95.43
2023-11-07T05:14:11.925Z,95.83
2023-11-07T05:16:45.359Z,95.45
2023-11-07T05:19:16.255Z,94.94
2023-11-07T05:21:44.175Z,94.54
2023-11-07T05:24:14.293Z,95.27
2023-11-07T05:26:41.944Z,94.09
2023-11-07T05:33:47.052Z,96.38
2023-11-07T05:36:17.303Z,96.83
2023-11-07T05:38:45.769Z,95.87
2023-11-07T05:41:13.572Z,94.69
2023-11-07T05:43:47.726Z,94.07
2023-11-07T05:46:23.601Z,93.40
2023-11-07T05:48:53.132Z,93.51
2023-11-07T05:51:28.919Z,94.53
2023-11-07T05:54:03.333Z,94.00
2023-11-07T05:56:31.278Z,93.79
2023-11-07T06:03:34.137Z,95.52
2023-11-07T06:06:01.835Z,95.76
2023-11-07T06:08:29.947Z,94.49
2023-11-07T06:10:58.592Z,93.75
2023-11-07T06:13:26.813Z,92.64
2023-11-07T06:15:55.723Z,89.86
2023-11-07T06:18:23.677Z,89.38
2023-11-07T06:20:52.594Z,89.01
2023-11-07T06:23:21.709Z,86.22
2023-11-07T06:25:52.361Z,85.78
2023-11-07T06:28:28.376Z,85.10
2023-11-07T06:30:55.962Z,84.90
2023-11-07T06:33:25.079Z,84.61
2023-11-07T06:35:55.424Z,83.99
2023-11-07T06:38:27.102Z,82.58
2023-11-07T06:40:54.489Z,83.12
2023-11-07T06:43:22.372Z,82.67
2023-11-07T06:45:50.731Z,83.50
2023-11-07T06:48:18.372Z,83.69
2023-11-07T06:50:47.627Z,84.35
2023-11-07T06:53:15.252Z,84.40
2023-11-07T06:55:42.666Z,85.58
2023-11-07T06:58:10.776Z,84.65
2023-11-07T07:00:40.217Z,86.44
2023-11-07T07:03:08.167Z,86.12
2023-11-07T07:05:35.824Z,86.68
2023-11-07T07:08:04.905Z,87.11
2023-11-07T07:10:33.454Z,86.63
2023-11-07T07:13:01.339Z,86.98
2023-11-07T07:15:28.879Z,85.92
2023-11-07T07:17:56.542Z,84.77
2023-11-07T07:20:24.335Z,84.48
2023-11-07T07:22:53.462Z,83.34
2023-11-07T07:25:22.495Z,83.59
2023-11-07T07:32:22.408Z,83.51
2023-11-07T07:34:52.826Z,82.89
2023-11-07T07:37:22.204Z,83.54
2023-11-07T07:39:49.520Z,81.10
2023-11-07T07:42:18.825Z,80.68
2023-11-07T07:44:46.816Z,79.90
2023-11-07T07:47:16.954Z,80.07
2023-11-07T07:49:46.017Z,79.14
2023-11-07T07:52:13.641Z,79.76
2023-11-07T07:55:00.634Z,77.58
2023-11-07T07:57:29.540Z,77.53
2023-11-07T08:00:00.959Z,77.94
2023-11-07T08:02:28.791Z,78.27
2023-11-07T08:04:58.030Z,77.31
2023-11-07T08:07:25.950Z,75.98
2023-11-07T08:09:53.290Z,75.54
2023-11-07T08:12:22.476Z,75.12
2023-11-07T08:14:49.743Z,74.33
2023-11-07T08:17:18.825Z,74.20
2023-11-07T08:19:47.602Z,74.64
2023-11-07T08:22:15.800Z,73.83
2023-11-07T08:24:43.830Z,73.71
2023-11-07T08:31:45.467Z,73.06
2023-11-07T08:34:13.177Z,72.63
2023-11-07T08:36:48.403Z,72.93
2023-11-07T08:39:29.001Z,72.24
2023-11-07T08:41:57.537Z,72.65
2023-11-07T08:44:24.883Z,73.48
2023-11-07T08:46:52.431Z,74.27
2023-11-07T08:49:50.237Z,73.39
2023-11-07T08:52:19.725Z,74.04
2023-11-07T08:54:47.084Z,73.42
2023-11-07T08:57:14.702Z,73.84
2023-11-07T08:59:46.051Z,72.73
2023-11-07T09:02:15.350Z,73.06
2023-11-07T09:04:44.841Z,72.65
2023-11-07T09:07:13.821Z,72.60
2023-11-07T09:09:41.187Z,72.00
2023-11-07T09:12:11.680Z,69.61
2023-11-07T09:14:38.983Z,71.11
2023-11-07T09:17:06.682Z,70.42
2023-11-07T09:19:34.143Z,67.41
2023-11-07T09:22:02.588Z,64.38
2023-11-07T09:24:30.256Z,64.80
2023-11-07T09:26:57.867Z,63.59
2023-11-07T09:29:26.179Z,63.29
2023-11-07T09:31:54.946Z,63.85
2023-11-07T09:34:22.513Z,61.75
2023-11-07T09:36:50.229Z,61.31
2023-11-07T09:39:17.599Z,60.01
2023-11-07T09:41:46.648Z,60.66
2023-11-07T09:44:15.161Z,60.54
2023-11-07T09:46:50.842Z,59.80
2023-11-07T09:49:22.049Z,58.09
2023-11-07T09:51:53.823Z,54.81
2023-11-07T09:54:26.542Z,56.07
2023-11-07T09:56:57.188Z,58.20
2023-11-07T09:59:54.125Z,57.52
2023-11-07T10:02:23.444Z,60.79
2023-11-07T10:04:54.114Z,60.61
2023-11-07T10:07:23.277Z,60.09
2023-11-07T10:09:56.195Z,60.92
2023-11-07T10:12:24.169Z,61.91
2023-11-07T10:14:52.694Z,61.65
2023-11-07T10:17:24.384Z,60.53
2023-11-07T10:20:16.406Z,58.84
2023-11-07T10:22:48.396Z,54.14
2023-11-07T10:25:51.541Z,54.71
2023-11-07T10:28:23.724Z,53.85
2023-11-07T10:30:52.017Z,52.59
2023-11-07T10:33:30.477Z,51.46
2023-11-07T10:36:01.765Z,53.78
2023-11-07T10:38:31.038Z,56.03
2023-11-07T10:41:00.189Z,57.85
2023-11-07T10:43:39.537Z,58.20
2023-11-07T10:46:12.503Z,59.52
2023-11-07T12:28:12.592Z,66.21
2023-11-07T14:24:27.991Z,64.15
2023-11-07T14:27:07.222Z,64.46
2023-11-07T14:29:55.144Z,64.26
2023-11-07T14:32:25.388Z,64.98
2023-11-07T14:34:54.011Z,65.79
2023-11-07T14:37:21.711Z,64.58
2023-11-07T14:39:50.333Z,65.39
2023-11-07T14:42:18.305Z,65.18
2023-11-07T14:44:47.003Z,65.14
2023-11-07T14:47:14.776Z,65.97
2023-11-07T14:49:44.504Z,65.50
2023-11-07T14:52:17.681Z,65.95
2023-11-07T14:54:54.500Z,67.05
2023-11-07T15:07:07.967Z,66.82
2023-11-07T15:09:38.903Z,66.86
2023-11-07T15:12:11.607Z,66.48
2023-11-07T15:24:28.070Z,66.85
2023-11-07T15:26:55.639Z,66.98
2023-11-07T15:29:23.626Z,66.01
2023-11-07T15:31:51.601Z,66.45
2023-11-07T15:34:21.114Z,67.52
2023-11-07T15:36:48.595Z,66.60
2023-11-07T15:39:19.086Z,66.69
2023-11-07T15:41:47.378Z,66.49
2023-11-07T15:44:16.897Z,66.96
2023-11-07T15:46:45.099Z,66.86
2023-11-07T15:49:12.978Z,67.32
2023-11-07T15:51:40.536Z,66.82
2023-11-07T15:54:08.280Z,67.29
2023-11-07T15:56:35.687Z,67.21
2023-11-07T15:59:05.727Z,68.21
2023-11-07T16:01:33.956Z,67.45
2023-11-07T16:04:01.810Z,68.14
2023-11-07T16:06:29.838Z,67.76
2023-11-07T16:08:58.190Z,68.27
2023-11-07T16:11:25.524Z,68.47
2023-11-07T16:13:54.323Z,68.02
2023-11-07T16:16:23.780Z,68.29
2023-11-07T16:18:56.101Z,68.62
2023-11-07T16:21:28.341Z,68.78
2023-11-07T16:24:00.425Z,68.98
2023-11-07T16:26:42.939Z,69.16
2023-11-07T16:29:12.131Z,69.43
2023-11-07T16:32:07.369Z,70.20
2023-11-07T16:34:38.481Z,69.78
2023-11-07T16:37:08.166Z,70.04
2023-11-07T16:39:39.662Z,70.36
2023-11-07T16:42:11.972Z,70.79
2023-11-07T16:44:41.338Z,70.77
2023-11-07T16:47:13.609Z,71.51
2023-11-07T16:49:44.300Z,71.20
2023-11-07T16:52:16.583Z,71.37
2023-11-07T16:54:45.323Z,71.41
2023-11-07T16:57:20.685Z,71.60
2023-11-07T17:00:12.135Z,71.36
2023-11-07T17:03:09.802Z,72.35
2023-11-07T17:40:11.156Z,76.95
2023-11-07T17:42:41.089Z,77.61
2023-11-07T17:45:12.501Z,76.72
2023-11-07T18:03:30.431Z,77.56
2023-11-07T18:11:06.610Z,77.19
2023-11-07T18:22:34.100Z,77.32
2023-11-07T18:25:03.933Z,77.48
2023-11-07T18:27:33.473Z,77.67
2023-11-07T18:30:09.484Z,77.65
2023-11-07T18:33:37.690Z,78.89
2023-11-07T18:37:20.143Z,78.84
2023-11-07T18:39:48.606Z,79.99
2023-11-07T18:42:16.581Z,80.09
2023-11-07T18:44:47.347Z,80.82
2023-11-07T18:47:15.020Z,81.68
2023-11-07T18:49:44.039Z,82.19
2023-11-07T18:52:11.858Z,82.93
2023-11-07T18:54:42.648Z,83.01
2023-11-07T18:57:14.319Z,83.48
2023-11-07T18:59:42.650Z,83.34
2023-11-07T19:02:11.487Z,83.26
2023-11-07T19:04:40.884Z,84.10
2023-11-07T19:07:09.236Z,84.40
2023-11-07T19:09:37.464Z,85.69
2023-11-07T19:12:05.978Z,88.19
2023-11-07T19:14:39.869Z,88.95
2023-11-07T19:17:13.192Z,92.02
2023-11-07T19:19:42.794Z,91.45
2023-11-07T19:22:10.689Z,95.16
2023-11-07T19:24:39.620Z,92.26
2023-11-07T19:27:12.036Z,94.60
2023-11-07T19:29:40.445Z,93.22
2023-11-07T19:32:08.318Z,94.55
2023-11-07T19:34:36.297Z,95.33
2023-11-07T19:37:03.942Z,97.14
2023-11-07T19:39:32.659Z,97.62
2023-11-07T19:42:04.023Z,93.64
2023-11-07T19:44:34.677Z,97.83
2023-11-07T19:47:02.937Z,100.00
2023-11-07T19:49:30.634Z,99.52
2023-11-07T19:51:59.551Z,100.00
2023-11-07T19:54:35.845Z,98.34
2023-11-07T19:57:04.154Z,100.00
2023-11-07T19:59:35.396Z,100.00
2023-11-07T20:02:06.059Z,100.00
2023-11-07T20:04:36.304Z,100.00
2023-11-07T20:07:07.106Z,100.00
2023-11-07T20:09:38.388Z,100.00
2023-11-07T20:12:11.313Z,100.00
2023-11-07T20:14:39.775Z,100.00
2023-11-07T20:17:08.924Z,100.00
2023-11-07T20:19:38.498Z,100.00
2023-11-07T20:22:06.601Z,100.00
2023-11-07T20:24:37.680Z,100.00
2023-11-07T20:27:05.525Z,100.00
2023-11-07T20:29:36.232Z,100.00
2023-11-07T20:32:07.084Z,100.00
2023-11-07T20:34:44.647Z,100.00
2023-11-07T20:37:14.670Z,100.00
2023-11-07T20:39:44.877Z,100.00
2023-11-07T20:42:13.778Z,100.00
2023-11-07T20:44:44.567Z,100.00
2023-11-07T20:47:17.517Z,100.00
2023-11-07T20:49:49.899Z,100.00
2023-11-07T20:52:25.184Z,100.00
2023-11-07T20:54:57.064Z,100.00
2023-11-07T20:57:25.080Z,100.00
2023-11-07T20:59:55.189Z,100.00
2023-11-07T21:02:25.492Z,100.00
2023-11-07T21:04:58.040Z,100.00
2023-11-07T21:07:25.509Z,100.00
2023-11-07T21:09:55.132Z,100.00
2023-11-07T21:12:22.613Z,100.00
2023-11-07T21:14:52.530Z,100.00
2023-11-07T21:17:21.200Z,100.00
2023-11-07T21:19:50.479Z,100.00
2023-11-07T21:22:19.160Z,100.00
2023-11-07T21:24:48.936Z,100.00
2023-11-07T21:27:18.341Z,100.00
2023-11-07T21:29:46.980Z,100.00
2023-11-07T21:32:16.385Z,100.00
2023-11-07T21:34:46.136Z,100.00
2023-11-07T21:37:22.246Z,100.00
2023-11-07T21:39:51.421Z,100.00
2023-11-07T21:42:23.776Z,100.00
2023-11-07T21:44:52.110Z,100.00
2023-11-07T21:47:23.376Z,100.00
2023-11-07T21:49:51.279Z,100.00
2023-11-07T21:52:20.645Z,100.00
2023-11-07T21:54:48.568Z,100.00
2023-11-07T21:57:16.239Z,100.00
2023-11-07T21:59:44.012Z,100.00
2023-11-07T22:02:13.034Z,100.00
2023-11-07T22:04:41.180Z,100.00
2023-11-07T22:07:09.988Z,100.00
2023-11-07T22:09:39.348Z,100.00
2023-11-07T22:12:08.329Z,100.00
2023-11-07T22:14:38.143Z,100.00
2023-11-07T22:17:07.980Z,100.00
2023-11-07T22:19:37.209Z,100.00
2023-11-07T22:22:07.502Z,100.00
2023-11-07T22:24:35.689Z,100.00
2023-11-07T22:27:05.961Z,100.00
2023-11-07T22:29:34.094Z,100.00
2023-11-07T22:32:01.459Z,100.00
2023-11-07T22:34:30.274Z,100.00
2023-11-07T22:36:57.591Z,100.00
2023-11-07T22:39:25.140Z,100.00
2023-11-07T22:41:53.230Z,100.00
2023-11-07T22:44:28.682Z,100.00
2023-11-07T22:46:55.931Z,100.00
2023-11-07T22:49:26.609Z,100.00
2023-11-07T22:51:53.953Z,100.00
2023-11-07T22:54:23.199Z,100.00
2023-11-07T22:56:51.751Z,100.00
2023-11-07T22:59:22.634Z,100.00
2023-11-07T23:01:51.004Z,100.00
2023-11-07T23:04:18.935Z,100.00
2023-11-07T23:06:46.420Z,100.00
2023-11-07T23:09:14.123Z,100.00
2023-11-07T23:11:48.668Z,100.00
2023-11-07T23:14:18.467Z,100.00
2023-11-07T23:16:45.712Z,100.00
2023-11-07T23:19:13.540Z,100.00
2023-11-07T23:21:41.030Z,100.00
2023-11-07T23:24:09.644Z,100.00
2023-11-07T23:26:41.789Z,100.00
2023-11-07T23:29:13.947Z,100.00
2023-11-07T23:31:41.981Z,100.00
2023-11-07T23:34:18.575Z,100.00
2023-11-07T23:36:48.811Z,100.00
2023-11-07T23:39:17.412Z,100.00
2023-11-07T23:41:45.199Z,100.00
2023-11-07T23:44:14.833Z,100.00
2023-11-07T23:46:46.326Z,100.00
2023-11-07T23:49:14.270Z,100.00
2023-11-07T23:51:43.695Z,100.00
2023-11-07T23:54:11.322Z,100.00
2023-11-07T23:56:39.402Z,100.00
2023-11-07T23:59:07.108Z,100.00
